createdAt,value
2018-07-20T00:02:04.680Z,3.47
2018-07-20T00:04:33.383Z,3.50
2018-07-20T00:07:02.018Z,3.70
2018-07-20T00:09:30.435Z,3.53
2018-07-20T00:11:58.951Z,3.47
2018-07-20T00:14:27.354Z,3.57
2018-07-20T00:16:58.144Z,3.47
2018-07-20T00:19:26.582Z,3.80
2018-07-20T00:21:55.002Z,4.20
2018-07-20T00:24:23.440Z,3.67
2018-07-20T00:26:51.903Z,3.63
2018-07-20T00:29:20.293Z,3.37
2018-07-20T00:31:48.804Z,3.80
2018-07-20T00:34:17.560Z,3.70
2018-07-20T00:36:46.253Z,3.60
2018-07-20T00:39:14.819Z,3.67
2018-07-20T00:41:43.269Z,3.37
2018-07-20T00:44:11.649Z,3.50
2018-07-20T00:46:40.989Z,3.30
2018-07-20T00:49:10.810Z,3.37
2018-07-20T00:51:39.910Z,3.40
2018-07-20T00:54:09.217Z,3.80
2018-07-20T00:56:38.298Z,3.60
2018-07-20T00:59:06.810Z,3.70
2018-07-20T01:01:35.517Z,3.60
2018-07-20T01:04:04.182Z,4.00
2018-07-20T01:06:32.642Z,3.40
2018-07-20T01:09:01.171Z,3.33
2018-07-20T01:11:29.669Z,3.53
2018-07-20T01:13:58.231Z,3.70
2018-07-20T01:16:26.684Z,3.70
2018-07-20T01:18:55.262Z,3.67
2018-07-20T01:21:23.727Z,3.60
2018-07-20T01:23:52.330Z,3.70
2018-07-20T01:26:20.743Z,3.93
2018-07-20T01:28:49.273Z,3.53
2018-07-20T01:31:17.676Z,3.70
2018-07-20T01:33:46.205Z,3.63
2018-07-20T01:36:14.596Z,3.73
2018-07-20T01:38:43.060Z,3.47
2018-07-20T01:41:12.599Z,3.87
2018-07-20T01:43:41.745Z,3.93
2018-07-20T01:46:10.942Z,4.23
2018-07-20T01:48:39.698Z,3.87
2018-07-20T01:51:08.142Z,4.23
2018-07-20T01:53:36.758Z,3.83
2018-07-20T01:56:05.610Z,3.40
2018-07-20T01:58:34.142Z,3.77
2018-07-20T02:01:02.947Z,4.20
2018-07-20T02:03:31.664Z,3.93
2018-07-20T02:06:00.076Z,4.10
2018-07-20T02:08:28.595Z,3.80
2018-07-20T02:10:59.232Z,3.83
2018-07-20T02:13:27.851Z,3.60
2018-07-20T02:15:56.912Z,3.80
2018-07-20T02:19:28.691Z,3.73
2018-07-20T02:21:57.255Z,4.00
2018-07-20T02:24:25.688Z,3.67
2018-07-20T02:26:54.178Z,3.87
2018-07-20T02:29:22.737Z,3.90
2018-07-20T02:31:51.351Z,4.07
2018-07-20T02:34:19.725Z,3.60
2018-07-20T02:36:48.249Z,4.10
2018-07-20T02:39:16.630Z,4.00
2018-07-20T02:41:46.188Z,3.97
2018-07-20T02:44:14.607Z,3.70
2018-07-20T02:46:43.156Z,4.07
2018-07-20T02:49:12.030Z,3.73
2018-07-20T02:51:42.111Z,3.70
2018-07-20T02:54:11.161Z,4.50
2018-07-20T02:56:40.007Z,3.90
2018-07-20T02:59:08.404Z,4.57
2018-07-20T03:01:36.854Z,4.50
2018-07-20T03:04:05.485Z,4.00
2018-07-20T03:06:34.030Z,4.00
2018-07-20T03:09:02.459Z,4.10
2018-07-20T03:11:31.380Z,4.03
2018-07-20T03:13:59.765Z,3.90
2018-07-20T03:16:28.256Z,4.37
2018-07-20T03:18:56.648Z,4.50
2018-07-20T03:21:26.097Z,4.30
2018-07-20T03:23:54.532Z,4.40
2018-07-20T03:26:23.066Z,4.80
2018-07-20T03:28:51.502Z,4.30
2018-07-20T03:31:20.085Z,4.70
2018-07-20T03:33:48.446Z,4.57
2018-07-20T03:36:16.864Z,4.40
2018-07-20T03:38:45.275Z,4.50
2018-07-20T03:41:14.770Z,5.53
2018-07-20T03:43:43.181Z,4.57
2018-07-20T03:46:12.038Z,4.90
2018-07-20T03:48:40.989Z,4.47
2018-07-20T03:51:10.276Z,4.33
2018-07-20T03:53:39.196Z,4.07
2018-07-20T03:56:08.013Z,4.67
2018-07-20T03:58:36.451Z,4.80
2018-07-20T04:01:05.003Z,6.67
2018-07-20T04:03:33.444Z,6.50
2018-07-20T04:06:01.891Z,6.17
2018-07-20T04:08:30.367Z,6.03
2018-07-20T04:10:58.843Z,5.50
2018-07-20T04:13:27.292Z,4.67
2018-07-20T04:15:56.042Z,4.80
2018-07-20T04:18:24.414Z,4.97
2018-07-20T04:20:53.865Z,4.87
2018-07-20T04:23:22.560Z,4.50
2018-07-20T04:25:51.070Z,4.30
2018-07-20T04:28:19.453Z,4.50
2018-07-20T04:30:47.892Z,4.40
2018-07-20T04:33:16.405Z,3.90
2018-07-20T04:35:44.802Z,4.03
2018-07-20T04:38:13.627Z,4.57
2018-07-20T04:40:42.023Z,4.80
2018-07-20T04:43:11.153Z,4.70
2018-07-20T04:45:40.166Z,4.67
2018-07-20T04:48:08.622Z,5.70
2018-07-20T04:50:37.185Z,4.83
2018-07-20T04:53:06.022Z,5.77
2018-07-20T04:55:34.637Z,5.33
2018-07-20T04:58:03.019Z,7.97
2018-07-20T05:00:31.417Z,7.03
2018-07-20T05:02:59.872Z,4.60
2018-07-20T05:05:28.189Z,5.77
2018-07-20T05:07:56.680Z,5.60
2018-07-20T05:10:25.107Z,4.93
2018-07-20T05:12:54.400Z,5.17
2018-07-20T05:15:22.851Z,4.80
2018-07-20T05:17:51.307Z,4.97
2018-07-20T05:20:19.685Z,5.03
2018-07-20T05:22:48.056Z,4.43
2018-07-20T05:25:16.494Z,4.53
2018-07-20T05:27:45.352Z,4.90
2018-07-20T05:30:13.717Z,4.50
2018-07-20T05:32:42.130Z,5.70
2018-07-20T05:35:11.309Z,5.17
2018-07-20T05:37:40.018Z,4.80
2018-07-20T05:40:08.522Z,5.10
2018-07-20T05:42:36.986Z,5.70
2018-07-20T05:45:05.374Z,6.20
2018-07-20T05:47:34.214Z,5.77
2018-07-20T05:50:02.978Z,6.00
2018-07-20T05:52:31.461Z,7.03
2018-07-20T05:54:59.822Z,7.63
2018-07-20T05:57:28.325Z,7.83
2018-07-20T05:59:56.693Z,7.50
2018-07-20T06:02:25.150Z,7.27
2018-07-20T06:04:53.552Z,7.87
2018-07-20T06:07:21.960Z,7.60
2018-07-20T06:09:50.470Z,7.40
2018-07-20T06:12:19.044Z,7.47
2018-07-20T07:39:45.543Z,4.90
2018-07-20T07:42:14.076Z,4.80
2018-07-20T07:44:42.770Z,4.83
2018-07-20T07:47:11.993Z,4.50
2018-07-20T07:49:41.128Z,4.67
2018-07-20T07:52:10.936Z,4.07
2018-07-20T07:54:39.667Z,4.73
2018-07-20T07:57:08.350Z,4.70
2018-07-20T07:59:36.731Z,4.27
2018-07-20T08:02:05.165Z,4.23
2018-07-20T08:04:33.641Z,4.67
2018-07-20T08:07:02.282Z,4.67
2018-07-20T08:09:30.897Z,4.73
2018-07-20T08:11:59.270Z,4.23
2018-07-20T08:14:27.662Z,4.40
2018-07-20T08:16:56.283Z,4.00
2018-07-20T08:19:24.682Z,4.23
2018-07-20T08:21:53.104Z,4.10
2018-07-20T08:24:21.519Z,4.50
2018-07-20T08:26:50.289Z,4.33
2018-07-20T08:29:19.170Z,4.40
2018-07-20T08:31:47.623Z,4.23
2018-07-20T08:34:16.315Z,4.40
2018-07-20T08:36:44.938Z,4.57
2018-07-20T08:39:13.670Z,4.80
2018-07-20T08:41:43.095Z,4.50
2018-07-20T08:44:11.514Z,4.57
2018-07-20T08:46:40.099Z,4.23
2018-07-20T08:49:08.647Z,4.50
2018-07-20T08:51:37.140Z,4.27
2018-07-20T08:54:05.621Z,4.70
2018-07-20T08:56:34.298Z,4.50
2018-07-20T08:59:02.694Z,4.43
2018-07-20T09:01:31.754Z,4.63
2018-07-20T09:04:00.138Z,4.90
2018-07-20T09:06:28.573Z,4.43
2018-07-20T09:08:56.896Z,4.90
2018-07-20T09:11:25.366Z,4.37
2018-07-20T09:13:53.975Z,4.77
2018-07-20T09:16:22.553Z,5.03
2018-07-20T09:18:51.165Z,4.80
2018-07-20T09:21:20.103Z,4.87
2018-07-20T09:23:48.962Z,5.33
2018-07-20T09:26:18.135Z,4.97
2018-07-20T09:28:46.725Z,4.33
2018-07-20T09:31:16.290Z,5.00
2018-07-20T09:33:45.191Z,4.50
2018-07-20T09:36:13.988Z,4.73
2018-07-20T09:38:42.763Z,4.90
2018-07-20T09:41:11.225Z,4.83
2018-07-20T09:43:39.695Z,5.47
2018-07-20T09:46:08.569Z,4.57
2018-07-20T09:48:36.905Z,4.80
2018-07-20T09:51:05.653Z,4.90
2018-07-20T09:53:34.134Z,4.90
2018-07-20T09:56:02.540Z,5.00
2018-07-20T09:58:30.964Z,4.90
2018-07-20T10:01:00.634Z,4.83
2018-07-20T10:03:29.350Z,5.63
2018-07-20T10:05:57.863Z,5.20
2018-07-20T10:08:26.249Z,4.90
2018-07-20T10:10:55.713Z,4.80
2018-07-20T10:13:24.141Z,4.80
2018-07-20T10:15:52.671Z,5.27
2018-07-20T10:18:21.142Z,5.40
2018-07-20T10:20:50.966Z,5.30
2018-07-20T10:23:19.647Z,5.23
2018-07-20T10:25:48.823Z,5.13
2018-07-20T10:28:17.575Z,4.80
2018-07-20T10:30:45.980Z,5.27
2018-07-20T10:33:14.495Z,5.17
2018-07-20T10:35:42.951Z,5.00
2018-07-20T10:38:11.356Z,5.30
2018-07-20T10:40:40.804Z,5.37
2018-07-20T10:43:09.239Z,5.20
2018-07-20T10:45:37.839Z,5.20
2018-07-20T10:48:06.210Z,5.17
2018-07-20T10:50:35.667Z,5.10
2018-07-20T10:53:04.076Z,5.20
2018-07-20T10:56:57.968Z,5.27
2018-07-20T10:59:26.822Z,5.10
2018-07-20T11:01:55.286Z,5.00
2018-07-20T11:04:23.663Z,5.40
2018-07-20T11:06:52.059Z,5.73
2018-07-20T11:09:20.427Z,5.40
2018-07-20T11:11:50.003Z,5.00
2018-07-20T11:14:18.466Z,5.43
2018-07-20T11:16:46.911Z,5.13
2018-07-20T11:19:15.280Z,5.87
2018-07-20T11:21:43.831Z,5.40
2018-07-20T11:24:12.243Z,5.37
2018-07-20T11:26:40.738Z,5.43
2018-07-20T11:29:09.154Z,5.63
2018-07-20T11:31:38.047Z,5.40
2018-07-20T11:34:06.539Z,5.30
2018-07-20T11:36:35.044Z,5.00
2018-07-20T11:39:03.948Z,5.37
2018-07-20T11:41:32.427Z,5.50
2018-07-20T11:44:01.054Z,6.03
2018-07-20T11:46:29.637Z,5.67
2018-07-20T11:48:58.014Z,6.00
2018-07-20T11:51:27.451Z,5.57
2018-07-20T11:53:55.810Z,5.80
2018-07-20T11:56:24.321Z,5.60
2018-07-20T11:58:52.760Z,5.57
2018-07-20T12:01:22.158Z,5.37
2018-07-20T12:03:50.752Z,5.40
2018-07-20T12:06:19.199Z,5.33
2018-07-20T12:08:48.140Z,5.60
2018-07-20T12:11:16.695Z,5.63
2018-07-20T12:13:44.809Z,5.70
2018-07-20T12:16:13.251Z,5.70
2018-07-20T12:18:41.654Z,5.87
2018-07-20T12:21:10.207Z,5.53
2018-07-20T12:23:38.583Z,5.70
2018-07-20T12:26:07.159Z,5.93
2018-07-20T12:28:35.278Z,6.20
2018-07-20T12:31:03.807Z,5.47
2018-07-20T12:33:32.167Z,5.50
2018-07-20T12:36:00.543Z,5.37
2018-07-20T12:38:28.835Z,6.10
2018-07-20T12:40:58.299Z,5.43
2018-07-20T12:43:26.778Z,6.07
2018-07-20T12:45:55.222Z,5.70
2018-07-20T12:48:23.690Z,5.23
2018-07-20T12:50:53.131Z,5.67
2018-07-20T12:53:21.607Z,5.70
2018-07-20T12:55:50.073Z,5.63
2018-07-20T12:58:18.885Z,5.60
2018-07-20T13:00:47.574Z,5.50
2018-07-20T13:03:15.939Z,5.57
2018-07-20T13:05:44.382Z,5.63
2018-07-20T13:08:12.719Z,6.00
2018-07-20T13:10:42.469Z,5.60
2018-07-20T13:13:10.919Z,5.47
2018-07-20T13:15:39.440Z,5.87
2018-07-20T13:18:07.939Z,5.93
2018-07-20T13:20:37.506Z,5.20
2018-07-20T13:23:05.920Z,5.53
2018-07-20T13:25:34.311Z,5.70
2018-07-20T13:28:02.760Z,5.27
2018-07-20T13:30:32.263Z,5.17
2018-07-20T13:33:00.705Z,5.60
2018-07-20T13:35:29.575Z,5.50
2018-07-20T13:37:58.017Z,5.50
2018-07-20T13:40:26.486Z,4.97
2018-07-20T13:42:54.889Z,4.90
2018-07-20T13:45:23.392Z,5.50
2018-07-20T13:47:52.053Z,5.27
2018-07-20T13:50:21.373Z,5.40
2018-07-20T13:52:50.599Z,5.20
2018-07-20T13:55:19.703Z,4.83
2018-07-20T13:57:49.192Z,5.83
2018-07-20T14:00:17.897Z,5.07
2018-07-20T14:02:46.314Z,5.23
2018-07-20T14:05:14.675Z,5.33
2018-07-20T14:07:43.565Z,5.40
2018-07-20T14:10:12.016Z,5.30
2018-07-20T14:12:40.448Z,5.40
2018-07-20T14:15:09.269Z,5.40
2018-07-20T14:17:37.770Z,5.67
2018-07-20T14:20:06.285Z,5.30
2018-07-20T14:22:35.047Z,5.60
2018-07-20T14:25:03.565Z,5.90
2018-07-20T14:27:32.056Z,5.60
2018-07-20T14:30:00.502Z,5.10
2018-07-20T14:32:28.861Z,5.47
2018-07-20T14:34:57.297Z,5.37
2018-07-20T14:37:25.725Z,5.60
2018-07-20T14:41:19.204Z,5.97
2018-07-20T14:43:47.700Z,5.70
2018-07-20T14:46:16.469Z,4.87
2018-07-20T14:48:44.949Z,5.57
2018-07-20T14:51:13.411Z,5.63
2018-07-20T14:53:42.136Z,5.27
2018-07-20T14:56:10.581Z,5.50
2018-07-20T14:58:39.144Z,5.40
2018-07-20T15:01:07.939Z,5.40
2018-07-20T15:03:36.386Z,5.47
2018-07-20T15:06:04.843Z,5.20
2018-07-20T15:08:33.365Z,5.57
2018-07-20T15:11:01.907Z,6.03
2018-07-20T15:13:30.382Z,5.90
2018-07-20T15:15:59.458Z,6.10
2018-07-20T15:18:27.968Z,6.53
2018-07-20T15:20:56.436Z,5.70
2018-07-20T15:23:24.895Z,5.20
2018-07-20T15:25:53.553Z,5.50
2018-07-20T15:28:22.721Z,5.40
2018-07-20T15:30:51.191Z,5.67
2018-07-20T15:33:19.953Z,5.60
2018-07-20T15:35:48.578Z,5.40
2018-07-20T15:38:17.109Z,5.40
2018-07-20T15:40:45.731Z,6.43
2018-07-20T15:43:14.225Z,5.77
2018-07-20T15:45:51.881Z,5.40
2018-07-20T15:48:11.245Z,5.53
2018-07-20T15:50:39.648Z,5.47
2018-07-20T15:54:37.421Z,5.60
2018-07-20T15:57:05.902Z,5.50
2018-07-20T15:59:34.390Z,5.50
2018-07-20T16:02:03.029Z,5.43
2018-07-20T16:04:31.487Z,5.40
2018-07-20T16:07:00.791Z,5.57
2018-07-20T16:09:29.473Z,5.60
2018-07-20T16:11:58.548Z,5.23
2018-07-20T16:14:27.063Z,5.40
2018-07-20T16:16:55.427Z,5.40
2018-07-20T16:19:23.834Z,5.57
2018-07-20T16:21:52.308Z,5.53
2018-07-20T16:24:20.769Z,5.70
2018-07-20T16:26:49.181Z,5.87
2018-07-20T16:29:17.291Z,5.40
2018-07-20T16:31:45.633Z,5.40
2018-07-20T16:34:14.140Z,5.67
2018-07-20T16:36:42.768Z,5.80
2018-07-20T16:39:11.534Z,5.80
2018-07-20T16:41:39.926Z,5.60
2018-07-20T16:44:08.387Z,5.50
2018-07-20T16:46:36.783Z,5.43
2018-07-20T16:49:05.174Z,6.13
2018-07-20T16:51:33.608Z,5.70
2018-07-20T16:54:03.309Z,6.47
2018-07-20T16:56:31.715Z,6.93
2018-07-20T16:59:00.191Z,7.90
2018-07-20T17:01:28.601Z,6.60
2018-07-20T17:03:57.949Z,6.30
2018-07-20T17:06:26.397Z,6.07
2018-07-20T17:08:54.894Z,6.00
2018-07-20T17:11:23.353Z,5.77
2018-07-20T17:13:51.814Z,6.17
2018-07-20T17:16:20.922Z,6.27
2018-07-20T17:18:49.794Z,6.10
2018-07-20T17:21:18.294Z,6.53
2018-07-20T17:23:46.879Z,7.20
2018-07-20T17:26:15.304Z,7.03
2018-07-20T17:28:43.742Z,6.67
2018-07-20T17:31:12.175Z,7.00
2018-07-20T17:35:05.510Z,6.53
2018-07-20T17:37:34.012Z,6.87
2018-07-20T17:40:02.708Z,6.10
2018-07-20T17:42:31.166Z,6.17
2018-07-20T17:44:59.732Z,6.33
2018-07-20T17:47:28.182Z,6.50
2018-07-20T17:49:56.804Z,6.47
2018-07-20T17:52:25.288Z,6.40
2018-07-20T17:54:53.850Z,5.90
2018-07-20T17:57:22.251Z,5.37
2018-07-20T17:59:51.443Z,5.63
2018-07-20T18:02:22.152Z,5.77
2018-07-20T18:04:51.263Z,5.57
2018-07-20T18:07:19.698Z,5.67
2018-07-20T18:09:48.220Z,5.80
2018-07-20T18:12:16.724Z,5.70
2018-07-20T18:14:45.097Z,5.77
2018-07-20T18:17:13.602Z,5.87
2018-07-20T18:19:42.060Z,5.90
2018-07-20T18:22:10.489Z,6.03
2018-07-20T18:24:39.367Z,5.80
2018-07-20T18:27:07.801Z,5.77
2018-07-20T18:29:36.327Z,6.00
2018-07-20T18:32:05.094Z,5.90
2018-07-20T18:34:33.604Z,5.67
2018-07-20T18:37:01.938Z,5.50
2018-07-20T18:39:30.385Z,6.30
2018-07-20T18:41:58.727Z,6.30
2018-07-20T18:44:27.130Z,5.93
2018-07-20T18:46:55.458Z,5.67
2018-07-20T18:49:23.900Z,5.80
2018-07-20T18:51:52.992Z,5.80
2018-07-20T18:54:22.296Z,5.80
2018-07-20T18:56:51.294Z,5.80
2018-07-20T18:59:19.771Z,5.80
2018-07-20T19:01:48.280Z,5.97
2018-07-20T19:04:16.714Z,6.10
2018-07-20T19:06:45.134Z,7.40
2018-07-20T19:09:13.534Z,6.50
2018-07-20T19:11:41.944Z,6.07
2018-07-20T19:14:10.433Z,6.00
2018-07-20T19:16:38.931Z,6.30
2018-07-20T19:19:07.753Z,6.63
2018-07-20T19:21:36.166Z,6.27
2018-07-20T19:24:04.647Z,6.30
2018-07-20T19:26:33.383Z,6.40
2018-07-20T19:29:01.789Z,6.23
2018-07-20T19:31:30.184Z,6.90
2018-07-20T19:33:59.104Z,6.30
2018-07-20T19:36:28.406Z,6.13
2018-07-20T19:38:57.582Z,5.97
2018-07-20T19:41:25.924Z,6.70
2018-07-20T19:43:54.357Z,6.13
2018-07-20T19:46:23.132Z,6.53
2018-07-20T19:48:53.014Z,6.20
2018-07-20T19:51:22.163Z,6.43
2018-07-20T19:53:50.929Z,6.57
2018-07-20T19:56:19.351Z,6.33
2018-07-20T19:58:47.851Z,6.40
2018-07-20T20:01:16.438Z,6.60
2018-07-20T20:03:44.988Z,6.90
2018-07-20T20:06:13.436Z,6.17
2018-07-20T20:08:41.860Z,5.87
2018-07-20T20:11:10.802Z,5.87
2018-07-20T20:13:39.283Z,5.60
2018-07-20T20:16:07.669Z,5.40
2018-07-20T20:18:36.202Z,5.77
2018-07-20T20:21:04.702Z,5.73
2018-07-20T20:23:33.099Z,5.23
2018-07-20T20:26:01.545Z,5.20
2018-07-20T20:28:29.952Z,5.80
2018-07-20T20:30:58.439Z,4.90
2018-07-20T20:33:26.928Z,4.80
2018-07-20T20:35:55.356Z,4.90
2018-07-20T20:38:23.980Z,4.90
2018-07-20T20:40:53.203Z,4.93
2018-07-20T20:43:22.416Z,4.63
2018-07-20T20:45:51.452Z,5.20
2018-07-20T20:48:20.429Z,5.10
2018-07-20T20:50:49.054Z,4.70
2018-07-20T20:53:17.544Z,4.80
2018-07-20T20:55:45.917Z,4.77
2018-07-20T20:58:14.486Z,4.73
2018-07-20T21:00:42.945Z,4.23
2018-07-20T21:03:11.401Z,4.63
2018-07-20T21:05:39.816Z,4.60
2018-07-20T21:08:08.598Z,4.60
2018-07-20T21:10:37.170Z,4.57
2018-07-20T21:13:05.797Z,4.47
2018-07-20T21:15:34.244Z,5.33
2018-07-20T21:18:03.026Z,4.97
2018-07-20T21:20:31.515Z,5.00
2018-07-20T21:22:59.960Z,6.07
2018-07-20T21:25:28.793Z,5.70
2018-07-20T21:27:57.395Z,6.07
2018-07-20T21:30:25.936Z,5.87
2018-07-20T21:32:54.388Z,7.47
2018-07-20T21:35:23.133Z,7.90
2018-07-20T21:37:52.277Z,7.40
2018-07-20T21:40:20.742Z,7.57
2018-07-20T21:42:49.343Z,8.00
2018-07-20T21:45:17.727Z,8.30
2018-07-20T21:47:46.261Z,7.87
2018-07-20T21:50:14.989Z,8.10
2018-07-20T21:52:43.466Z,7.43
2018-07-20T21:55:11.935Z,7.27
2018-07-20T21:57:40.466Z,7.13
2018-07-20T22:00:13.599Z,6.83
2018-07-20T22:02:41.992Z,6.20
2018-07-20T22:05:10.794Z,6.50
2018-07-20T22:07:39.137Z,6.50
2018-07-20T22:10:08.140Z,6.27
2018-07-20T22:12:36.935Z,6.13
2018-07-20T22:15:06.214Z,5.50
2018-07-20T22:17:34.759Z,5.40
2018-07-20T22:20:03.471Z,5.23
2018-07-20T22:22:32.233Z,4.93
2018-07-20T22:25:00.587Z,5.30
2018-07-20T22:27:29.024Z,5.20
2018-07-20T22:29:57.459Z,4.87
2018-07-20T22:32:26.095Z,4.60
2018-07-20T22:34:54.482Z,4.90
2018-07-20T22:37:23.971Z,5.10
2018-07-20T22:39:52.983Z,4.67
2018-07-20T22:42:22.084Z,5.03
2018-07-20T22:44:50.476Z,5.73
2018-07-20T22:47:19.497Z,6.03
2018-07-20T22:49:47.899Z,6.33
2018-07-20T22:52:16.736Z,6.83
2018-07-20T22:54:45.394Z,6.87
2018-07-20T22:57:13.836Z,5.97
2018-07-20T22:59:42.228Z,6.93
2018-07-20T23:02:10.703Z,6.50
2018-07-20T23:04:39.148Z,6.20
2018-07-20T23:07:07.302Z,6.50
2018-07-20T23:09:35.733Z,7.00
2018-07-20T23:12:04.314Z,6.60
2018-07-20T23:14:32.687Z,6.77
2018-07-20T23:17:01.200Z,6.90
2018-07-20T23:19:29.552Z,6.90
2018-07-20T23:21:58.039Z,6.67
2018-07-20T23:24:26.454Z,7.33
2018-07-20T23:26:54.937Z,7.63
2018-07-20T23:29:23.821Z,7.70
2018-07-20T23:31:53.519Z,7.93
2018-07-20T23:34:22.021Z,7.90
2018-07-20T23:36:50.543Z,8.23
2018-07-20T23:39:18.955Z,8.03
2018-07-20T23:41:47.471Z,7.50
2018-07-20T23:44:15.988Z,7.23
2018-07-20T23:46:44.438Z,8.23
2018-07-20T23:49:12.855Z,8.03
2018-07-20T23:51:41.315Z,8.60
2018-07-20T23:54:09.724Z,8.30
2018-07-20T23:56:38.250Z,7.70
2018-07-20T23:59:06.697Z,8.40
